sensor_id;sensor_type;location;lat;lon;timestamp;P1;durP1;ratioP1;P2;durP2;ratioP2
79592;SDS011;69074;45.164;9.704;2024-02-04T00:00:54;66.3;;;56.5;;
79592;SDS011;69074;45.164;9.704;2024-02-04T00:03:19;66.3;;;56.5;;
79592;SDS011;69074;45.164;9.704;2024-02-04T00:05:44;64.4;;;55.8;;
79592;SDS011;69074;45.164;9.704;2024-02-04T00:08:09;64.4;;;55.8;;
79592;SDS011;69074;45.164;9.704;2024-02-04T00:10:34;64.4;;;55.8;;
79592;SDS011;69074;45.164;9.704;2024-02-04T00:12:59;64.4;;;55.8;;
79592;SDS011;69074;45.164;9.704;2024-02-04T00:15:24;64.4;;;55.8;;
79592;SDS011;69074;45.164;9.704;2024-02-04T00:17:49;64.4;;;55.8;;
79592;SDS011;69074;45.164;9.704;2024-02-04T00:20:14;65.6;;;58.2;;
79592;SDS011;69074;45.164;9.704;2024-02-04T00:22:39;65.6;;;58.2;;
79592;SDS011;69074;45.164;9.704;2024-02-04T00:25:04;65.6;;;58.2;;
79592;SDS011;69074;45.164;9.704;2024-02-04T00:27:29;65.6;;;58.2;;
79592;SDS011;69074;45.164;9.704;2024-02-04T00:29:54;65.6;;;58.2;;
79592;SDS011;69074;45.164;9.704;2024-02-04T00:32:19;65.6;;;58.2;;
79592;SDS011;69074;45.164;9.704;2024-02-04T00:34:44;65.6;;;58.2;;
79592;SDS011;69074;45.164;9.704;2024-02-04T00:37:09;68.3;;;57.9;;
79592;SDS011;69074;45.164;9.704;2024-02-04T00:39:34;68.3;;;57.9;;
79592;SDS011;69074;45.164;9.704;2024-02-04T00:41:59;68.3;;;57.9;;
79592;SDS011;69074;45.164;9.704;2024-02-04T00:44:24;68.3;;;57.9;;
79592;SDS011;69074;45.164;9.704;2024-02-04T00:46:49;68.3;;;57.9;;
79592;SDS011;69074;45.164;9.704;2024-02-04T00:49:14;68.3;;;57.9;;
79592;SDS011;69074;45.164;9.704;2024-02-04T00:51:39;65.1;;;55.7;;
79592;SDS011;69074;45.164;9.704;2024-02-04T00:54:04;65.1;;;55.7;;
79592;SDS011;69074;45.164;9.704;2024-02-04T00:56:29;65.1;;;55.7;;
79592;SDS011;69074;45.164;9.704;2024-02-04T00:58:54;65.1;;;55.7;;
79592;SDS011;69074;45.164;9.704;2024-02-04T01:01:19;65.1;;;55.7;;
79592;SDS011;69074;45.164;9.704;2024-02-04T01:03:44;65.1;;;55.7;;
79592;SDS011;69074;45.164;9.704;2024-02-04T01:06:09;59.3;;;51.3;;
79592;SDS011;69074;45.164;9.704;2024-02-04T01:08:34;59.3;;;51.3;;
79592;SDS011;69074;45.164;9.704;2024-02-04T01:10:59;59.3;;;51.3;;
79592;SDS011;69074;45.164;9.704;2024-02-04T01:13:24;59.3;;;51.3;;
79592;SDS011;69074;45.164;9.704;2024-02-04T01:15:49;59.3;;;51.3;;
79592;SDS011;69074;45.164;9.704;2024-02-04T01:18:14;59.3;;;51.3;;
79592;SDS011;69074;45.164;9.704;2024-02-04T01:20:39;56.3;;;48.7;;
79592;SDS011;69074;45.164;9.704;2024-02-04T01:23:04;56.3;;;48.7;;
79592;SDS011;69074;45.164;9.704;2024-02-04T01:25:29;56.3;;;48.7;;
79592;SDS011;69074;45.164;9.704;2024-02-04T01:27:54;56.3;;;48.7;;
79592;SDS011;69074;45.164;9.704;2024-02-04T01:30:19;56.3;;;48.7;;
79592;SDS011;69074;45.164;9.704;2024-02-04T01:32:44;56.3;;;48.7;;
79592;SDS011;69074;45.164;9.704;2024-02-04T01:35:09;53.1;;;44.6;;
79592;SDS011;69074;45.164;9.704;2024-02-04T01:37:34;53.1;;;44.6;;
79592;SDS011;69074;45.164;9.704;2024-02-04T01:39:59;53.1;;;44.6;;
79592;SDS011;69074;45.164;9.704;2024-02-04T01:42:24;53.1;;;44.6;;
79592;SDS011;69074;45.164;9.704;2024-02-04T01:44:49;53.1;;;44.6;;
79592;SDS011;69074;45.164;9.704;2024-02-04T01:47:14;53.1;;;44.6;;
79592;SDS011;69074;45.164;9.704;2024-02-04T01:49:39;53.1;;;44.6;;
79592;SDS011;69074;45.164;9.704;2024-02-04T01:52:04;52.8;;;45.1;;
79592;SDS011;69074;45.164;9.704;2024-02-04T01:54:29;52.8;;;45.1;;
79592;SDS011;69074;45.164;9.704;2024-02-04T01:56:54;52.8;;;45.1;;
79592;SDS011;69074;45.164;9.704;2024-02-04T01:59:19;52.8;;;45.1;;
79592;SDS011;69074;45.164;9.704;2024-02-04T02:01:44;52.8;;;45.1;;
79592;SDS011;69074;45.164;9.704;2024-02-04T02:04:09;52.8;;;45.1;;
79592;SDS011;69074;45.164;9.704;2024-02-04T02:06:34;52.9;;;45.7;;
79592;SDS011;69074;45.164;9.704;2024-02-04T02:08:59;52.9;;;45.7;;
79592;SDS011;69074;45.164;9.704;2024-02-04T02:11:28;52.9;;;45.7;;
79592;SDS011;69074;45.164;9.704;2024-02-04T02:13:50;52.9;;;45.7;;
79592;SDS011;69074;45.164;9.704;2024-02-04T02:16:15;52.9;;;45.7;;
79592;SDS011;69074;45.164;9.704;2024-02-04T02:18:41;52.9;;;45.7;;
79592;SDS011;69074;45.164;9.704;2024-02-04T02:21:10;51.7;;;44.5;;
79592;SDS011;69074;45.164;9.704;2024-02-04T02:23:29;51.7;;;44.5;;
79592;SDS011;69074;45.164;9.704;2024-02-04T02:25:54;51.7;;;44.5;;
79592;SDS011;69074;45.164;9.704;2024-02-04T02:28:19;51.7;;;44.5;;
79592;SDS011;69074;45.164;9.704;2024-02-04T02:30:44;51.7;;;44.5;;
79592;SDS011;69074;45.164;9.704;2024-02-04T02:33:09;51.7;;;44.5;;
79592;SDS011;69074;45.164;9.704;2024-02-04T02:35:34;49.1;;;41.4;;
79592;SDS011;69074;45.164;9.704;2024-02-04T02:38:01;49.1;;;41.4;;
79592;SDS011;69074;45.164;9.704;2024-02-04T02:40:26;49.1;;;41.4;;
79592;SDS011;69074;45.164;9.704;2024-02-04T02:42:49;49.1;;;41.4;;
79592;SDS011;69074;45.164;9.704;2024-02-04T02:45:14;49.1;;;41.4;;
79592;SDS011;69074;45.164;9.704;2024-02-04T02:47:39;49.1;;;41.4;;
79592;SDS011;69074;45.164;9.704;2024-02-04T02:50:04;45.1;;;40.1;;
79592;SDS011;69074;45.164;9.704;2024-02-04T02:52:29;45.1;;;40.1;;
79592;SDS011;69074;45.164;9.704;2024-02-04T02:54:54;45.1;;;40.1;;
79592;SDS011;69074;45.164;9.704;2024-02-04T02:57:19;45.1;;;40.1;;
79592;SDS011;69074;45.164;9.704;2024-02-04T02:59:44;45.1;;;40.1;;
79592;SDS011;69074;45.164;9.704;2024-02-04T03:02:09;45.1;;;40.1;;
79592;SDS011;69074;45.164;9.704;2024-02-04T03:04:34;45.1;;;40.1;;
79592;SDS011;69074;45.164;9.704;2024-02-04T03:06:59;45.2;;;38.2;;
79592;SDS011;69074;45.164;9.704;2024-02-04T03:09:24;45.2;;;38.2;;
79592;SDS011;69074;45.164;9.704;2024-02-04T03:11:49;45.2;;;38.2;;
79592;SDS011;69074;45.164;9.704;2024-02-04T03:14:15;45.2;;;38.2;;
79592;SDS011;69074;45.164;9.704;2024-02-04T03:16:39;45.2;;;38.2;;
79592;SDS011;69074;45.164;9.704;2024-02-04T03:19:04;45.2;;;38.2;;
79592;SDS011;69074;45.164;9.704;2024-02-04T03:21:29;40.8;;;35.2;;
79592;SDS011;69074;45.164;9.704;2024-02-04T03:23:54;40.8;;;35.2;;
79592;SDS011;69074;45.164;9.704;2024-02-04T03:26:19;40.8;;;35.2;;
79592;SDS011;69074;45.164;9.704;2024-02-04T03:28:44;40.8;;;35.2;;
79592;SDS011;69074;45.164;9.704;2024-02-04T03:31:09;40.8;;;35.2;;
79592;SDS011;69074;45.164;9.704;2024-02-04T03:33:34;40.8;;;35.2;;
79592;SDS011;69074;45.164;9.704;2024-02-04T03:35:59;40.0;;;33.9;;
79592;SDS011;69074;45.164;9.704;2024-02-04T03:38:24;40.0;;;33.9;;
79592;SDS011;69074;45.164;9.704;2024-02-04T03:40:49;40.0;;;33.9;;
79592;SDS011;69074;45.164;9.704;2024-02-04T03:43:14;40.0;;;33.9;;
79592;SDS011;69074;45.164;9.704;2024-02-04T03:45:39;40.0;;;33.9;;
79592;SDS011;69074;45.164;9.704;2024-02-04T03:48:04;40.0;;;33.9;;
79592;SDS011;69074;45.164;9.704;2024-02-04T03:50:29;34.3;;;30.3;;
79592;SDS011;69074;45.164;9.704;2024-02-04T03:52:54;34.3;;;30.3;;
79592;SDS011;69074;45.164;9.704;2024-02-04T03:55:19;34.3;;;30.3;;
79592;SDS011;69074;45.164;9.704;2024-02-04T03:57:44;34.3;;;30.3;;
79592;SDS011;69074;45.164;9.704;2024-02-04T04:00:09;34.3;;;30.3;;
79592;SDS011;69074;45.164;9.704;2024-02-04T04:02:34;34.3;;;30.3;;
79592;SDS011;69074;45.164;9.704;2024-02-04T04:04:59;31.0;;;27.5;;
79592;SDS011;69074;45.164;9.704;2024-02-04T04:07:24;31.0;;;27.5;;
79592;SDS011;69074;45.164;9.704;2024-02-04T04:09:49;31.0;;;27.5;;
79592;SDS011;69074;45.164;9.704;2024-02-04T04:12:14;31.0;;;27.5;;
79592;SDS011;69074;45.164;9.704;2024-02-04T04:14:39;31.0;;;27.5;;
79592;SDS011;69074;45.164;9.704;2024-02-04T04:17:04;31.0;;;27.5;;
79592;SDS011;69074;45.164;9.704;2024-02-04T04:19:29;31.0;;;27.5;;
79592;SDS011;69074;45.164;9.704;2024-02-04T04:21:54;28.9;;;25.7;;
79592;SDS011;69074;45.164;9.704;2024-02-04T04:24:19;28.9;;;25.7;;
79592;SDS011;69074;45.164;9.704;2024-02-04T04:26:44;28.9;;;25.7;;
79592;SDS011;69074;45.164;9.704;2024-02-04T04:29:09;28.9;;;25.7;;
79592;SDS011;69074;45.164;9.704;2024-02-04T04:31:34;28.9;;;25.7;;
79592;SDS011;69074;45.164;9.704;2024-02-04T04:33:59;28.9;;;25.7;;
79592;SDS011;69074;45.164;9.704;2024-02-04T04:36:24;26.6;;;23.6;;
79592;SDS011;69074;45.164;9.704;2024-02-04T04:38:49;26.6;;;23.6;;
79592;SDS011;69074;45.164;9.704;2024-02-04T04:41:14;26.6;;;23.6;;
79592;SDS011;69074;45.164;9.704;2024-02-04T04:43:39;26.6;;;23.6;;
79592;SDS011;69074;45.164;9.704;2024-02-04T04:46:04;26.6;;;23.6;;
79592;SDS011;69074;45.164;9.704;2024-02-04T04:48:29;26.6;;;23.6;;
79592;SDS011;69074;45.164;9.704;2024-02-04T04:50:54;24.7;;;22.1;;
79592;SDS011;69074;45.164;9.704;2024-02-04T04:53:19;24.7;;;22.1;;
79592;SDS011;69074;45.164;9.704;2024-02-04T04:55:44;24.7;;;22.1;;
79592;SDS011;69074;45.164;9.704;2024-02-04T04:58:09;24.7;;;22.1;;
79592;SDS011;69074;45.164;9.704;2024-02-04T05:00:34;24.7;;;22.1;;
79592;SDS011;69074;45.164;9.704;2024-02-04T05:02:59;24.7;;;22.1;;
79592;SDS011;69074;45.164;9.704;2024-02-04T05:05:24;23.3;;;20.9;;
79592;SDS011;69074;45.164;9.704;2024-02-04T05:07:49;23.3;;;20.9;;
79592;SDS011;69074;45.164;9.704;2024-02-04T05:10:14;23.3;;;20.9;;
79592;SDS011;69074;45.164;9.704;2024-02-04T05:12:39;23.3;;;20.9;;
79592;SDS011;69074;45.164;9.704;2024-02-04T05:15:05;23.3;;;20.9;;
79592;SDS011;69074;45.164;9.704;2024-02-04T05:17:29;23.3;;;20.9;;
79592;SDS011;69074;45.164;9.704;2024-02-04T05:19:54;21.9;;;19.6;;
79592;SDS011;69074;45.164;9.704;2024-02-04T05:22:19;21.9;;;19.6;;
79592;SDS011;69074;45.164;9.704;2024-02-04T05:24:44;21.9;;;19.6;;
79592;SDS011;69074;45.164;9.704;2024-02-04T05:27:09;21.9;;;19.6;;
79592;SDS011;69074;45.164;9.704;2024-02-04T05:29:34;21.9;;;19.6;;
79592;SDS011;69074;45.164;9.704;2024-02-04T05:31:59;21.9;;;19.6;;
79592;SDS011;69074;45.164;9.704;2024-02-04T05:34:24;21.9;;;19.6;;
79592;SDS011;69074;45.164;9.704;2024-02-04T05:36:49;20.7;;;18.5;;
79592;SDS011;69074;45.164;9.704;2024-02-04T05:39:14;20.7;;;18.5;;
79592;SDS011;69074;45.164;9.704;2024-02-04T05:41:39;20.7;;;18.5;;
79592;SDS011;69074;45.164;9.704;2024-02-04T05:44:04;20.7;;;18.5;;
79592;SDS011;69074;45.164;9.704;2024-02-04T05:46:29;20.7;;;18.5;;
79592;SDS011;69074;45.164;9.704;2024-02-04T05:48:54;20.7;;;18.5;;
79592;SDS011;69074;45.164;9.704;2024-02-04T05:51:19;19.8;;;17.8;;
79592;SDS011;69074;45.164;9.704;2024-02-04T05:53:44;19.8;;;17.8;;
79592;SDS011;69074;45.164;9.704;2024-02-04T05:56:09;19.8;;;17.8;;
79592;SDS011;69074;45.164;9.704;2024-02-04T05:58:34;19.8;;;17.8;;
79592;SDS011;69074;45.164;9.704;2024-02-04T06:00:59;19.8;;;17.8;;
79592;SDS011;69074;45.164;9.704;2024-02-04T06:03:24;19.8;;;17.8;;
79592;SDS011;69074;45.164;9.704;2024-02-04T06:05:49;20.5;;;18.4;;
79592;SDS011;69074;45.164;9.704;2024-02-04T06:08:14;20.5;;;18.4;;
79592;SDS011;69074;45.164;9.704;2024-02-04T06:10:39;20.5;;;18.4;;
79592;SDS011;69074;45.164;9.704;2024-02-04T06:13:04;20.5;;;18.4;;
79592;SDS011;69074;45.164;9.704;2024-02-04T06:15:29;20.5;;;18.4;;
79592;SDS011;69074;45.164;9.704;2024-02-04T06:17:54;20.5;;;18.4;;
79592;SDS011;69074;45.164;9.704;2024-02-04T06:20:19;19.7;;;17.7;;
79592;SDS011;69074;45.164;9.704;2024-02-04T06:22:44;19.7;;;17.7;;
79592;SDS011;69074;45.164;9.704;2024-02-04T06:25:09;19.7;;;17.7;;
79592;SDS011;69074;45.164;9.704;2024-02-04T06:27:34;19.7;;;17.7;;
79592;SDS011;69074;45.164;9.704;2024-02-04T06:29:59;19.7;;;17.7;;
79592;SDS011;69074;45.164;9.704;2024-02-04T06:32:24;19.7;;;17.7;;
79592;SDS011;69074;45.164;9.704;2024-02-04T06:34:49;19.7;;;17.7;;
79592;SDS011;69074;45.164;9.704;2024-02-04T06:37:14;18.6;;;16.7;;
79592;SDS011;69074;45.164;9.704;2024-02-04T06:39:40;18.6;;;16.7;;
79592;SDS011;69074;45.164;9.704;2024-02-04T06:42:04;18.6;;;16.7;;
79592;SDS011;69074;45.164;9.704;2024-02-04T06:44:29;18.6;;;16.7;;
79592;SDS011;69074;45.164;9.704;2024-02-04T06:46:54;18.6;;;16.7;;
79592;SDS011;69074;45.164;9.704;2024-02-04T06:49:19;18.6;;;16.7;;
79592;SDS011;69074;45.164;9.704;2024-02-04T06:51:44;19.6;;;17.6;;
79592;SDS011;69074;45.164;9.704;2024-02-04T06:54:09;19.6;;;17.6;;
79592;SDS011;69074;45.164;9.704;2024-02-04T06:56:34;19.6;;;17.6;;
79592;SDS011;69074;45.164;9.704;2024-02-04T06:58:59;19.6;;;17.6;;
79592;SDS011;69074;45.164;9.704;2024-02-04T07:01:24;19.6;;;17.6;;
79592;SDS011;69074;45.164;9.704;2024-02-04T07:03:49;19.6;;;17.6;;
79592;SDS011;69074;45.164;9.704;2024-02-04T07:06:14;18.8;;;16.9;;
79592;SDS011;69074;45.164;9.704;2024-02-04T07:08:39;18.8;;;16.9;;
79592;SDS011;69074;45.164;9.704;2024-02-04T07:11:04;18.8;;;16.9;;
79592;SDS011;69074;45.164;9.704;2024-02-04T07:13:29;18.8;;;16.9;;
79592;SDS011;69074;45.164;9.704;2024-02-04T07:15:54;18.8;;;16.9;;
79592;SDS011;69074;45.164;9.704;2024-02-04T07:18:19;18.8;;;16.9;;
79592;SDS011;69074;45.164;9.704;2024-02-04T07:20:44;18.3;;;16.4;;
79592;SDS011;69074;45.164;9.704;2024-02-04T07:23:09;18.3;;;16.4;;
79592;SDS011;69074;45.164;9.704;2024-02-04T07:25:34;18.3;;;16.4;;
79592;SDS011;69074;45.164;9.704;2024-02-04T07:27:59;18.3;;;16.4;;
79592;SDS011;69074;45.164;9.704;2024-02-04T07:30:24;18.3;;;16.4;;
79592;SDS011;69074;45.164;9.704;2024-02-04T07:32:49;18.3;;;16.4;;
79592;SDS011;69074;45.164;9.704;2024-02-04T07:35:14;17.2;;;15.4;;
79592;SDS011;69074;45.164;9.704;2024-02-04T07:37:39;17.2;;;15.4;;
79592;SDS011;69074;45.164;9.704;2024-02-04T07:40:04;17.2;;;15.4;;
79592;SDS011;69074;45.164;9.704;2024-02-04T07:42:29;17.2;;;15.4;;
79592;SDS011;69074;45.164;9.704;2024-02-04T07:44:54;17.2;;;15.4;;
79592;SDS011;69074;45.164;9.704;2024-02-04T07:47:19;17.2;;;15.4;;
79592;SDS011;69074;45.164;9.704;2024-02-04T07:49:44;17.2;;;15.4;;
79592;SDS011;69074;45.164;9.704;2024-02-04T07:52:09;15.5;;;13.8;;
79592;SDS011;69074;45.164;9.704;2024-02-04T07:54:34;15.5;;;13.8;;
79592;SDS011;69074;45.164;9.704;2024-02-04T07:56:59;15.5;;;13.8;;
79592;SDS011;69074;45.164;9.704;2024-02-04T07:59:24;15.5;;;13.8;;
79592;SDS011;69074;45.164;9.704;2024-02-04T08:01:49;15.5;;;13.8;;
79592;SDS011;69074;45.164;9.704;2024-02-04T08:04:14;15.5;;;13.8;;
79592;SDS011;69074;45.164;9.704;2024-02-04T08:06:39;15.4;;;13.9;;
79592;SDS011;69074;45.164;9.704;2024-02-04T08:09:04;15.4;;;13.9;;
79592;SDS011;69074;45.164;9.704;2024-02-04T08:11:29;15.4;;;13.9;;
79592;SDS011;69074;45.164;9.704;2024-02-04T08:13:54;15.4;;;13.9;;
79592;SDS011;69074;45.164;9.704;2024-02-04T08:16:19;15.4;;;13.9;;
79592;SDS011;69074;45.164;9.704;2024-02-04T08:18:44;15.4;;;13.9;;
79592;SDS011;69074;45.164;9.704;2024-02-04T08:21:09;14.7;;;13.2;;
79592;SDS011;69074;45.164;9.704;2024-02-04T08:23:34;14.7;;;13.2;;
79592;SDS011;69074;45.164;9.704;2024-02-04T08:25:59;14.7;;;13.2;;
79592;SDS011;69074;45.164;9.704;2024-02-04T08:28:24;14.7;;;13.2;;
79592;SDS011;69074;45.164;9.704;2024-02-04T08:30:49;14.7;;;13.2;;
79592;SDS011;69074;45.164;9.704;2024-02-04T08:33:14;14.7;;;13.2;;
79592;SDS011;69074;45.164;9.704;2024-02-04T08:35:39;14.5;;;13.0;;
79592;SDS011;69074;45.164;9.704;2024-02-04T08:38:04;14.5;;;13.0;;
79592;SDS011;69074;45.164;9.704;2024-02-04T08:40:29;14.5;;;13.0;;
79592;SDS011;69074;45.164;9.704;2024-02-04T08:42:54;14.5;;;13.0;;
79592;SDS011;69074;45.164;9.704;2024-02-04T08:45:19;14.5;;;13.0;;
79592;SDS011;69074;45.164;9.704;2024-02-04T08:47:44;14.5;;;13.0;;
79592;SDS011;69074;45.164;9.704;2024-02-04T08:50:10;13.7;;;12.4;;
79592;SDS011;69074;45.164;9.704;2024-02-04T08:52:34;13.7;;;12.4;;
79592;SDS011;69074;45.164;9.704;2024-02-04T08:54:59;13.7;;;12.4;;
79592;SDS011;69074;45.164;9.704;2024-02-04T08:57:24;13.7;;;12.4;;
79592;SDS011;69074;45.164;9.704;2024-02-04T08:59:49;13.7;;;12.4;;
79592;SDS011;69074;45.164;9.704;2024-02-04T09:02:14;13.7;;;12.4;;
79592;SDS011;69074;45.164;9.704;2024-02-04T09:04:39;13.7;;;12.4;;
79592;SDS011;69074;45.164;9.704;2024-02-04T09:07:04;14.0;;;12.5;;
79592;SDS011;69074;45.164;9.704;2024-02-04T09:09:29;14.0;;;12.5;;
79592;SDS011;69074;45.164;9.704;2024-02-04T09:11:54;14.0;;;12.5;;
79592;SDS011;69074;45.164;9.704;2024-02-04T09:14:19;14.0;;;12.5;;
79592;SDS011;69074;45.164;9.704;2024-02-04T09:16:44;14.0;;;12.5;;
79592;SDS011;69074;45.164;9.704;2024-02-04T09:19:09;14.0;;;12.5;;
79592;SDS011;69074;45.164;9.704;2024-02-04T09:21:34;13.6;;;12.2;;
79592;SDS011;69074;45.164;9.704;2024-02-04T09:23:59;13.6;;;12.2;;
79592;SDS011;69074;45.164;9.704;2024-02-04T09:26:24;13.6;;;12.2;;
79592;SDS011;69074;45.164;9.704;2024-02-04T09:28:49;13.6;;;12.2;;
79592;SDS011;69074;45.164;9.704;2024-02-04T09:31:14;13.6;;;12.2;;
79592;SDS011;69074;45.164;9.704;2024-02-04T09:33:39;13.6;;;12.2;;
79592;SDS011;69074;45.164;9.704;2024-02-04T09:36:04;12.8;;;11.5;;
79592;SDS011;69074;45.164;9.704;2024-02-04T09:38:29;12.8;;;11.5;;
79592;SDS011;69074;45.164;9.704;2024-02-04T09:40:54;12.8;;;11.5;;
79592;SDS011;69074;45.164;9.704;2024-02-04T09:43:19;12.8;;;11.5;;
79592;SDS011;69074;45.164;9.704;2024-02-04T09:45:44;12.8;;;11.5;;
79592;SDS011;69074;45.164;9.704;2024-02-04T09:48:09;12.8;;;11.5;;
79592;SDS011;69074;45.164;9.704;2024-02-04T09:50:34;13.1;;;11.8;;
79592;SDS011;69074;45.164;9.704;2024-02-04T09:52:59;13.1;;;11.8;;
79592;SDS011;69074;45.164;9.704;2024-02-04T09:55:24;13.1;;;11.8;;
79592;SDS011;69074;45.164;9.704;2024-02-04T09:57:49;13.1;;;11.8;;
79592;SDS011;69074;45.164;9.704;2024-02-04T10:00:14;13.1;;;11.8;;
79592;SDS011;69074;45.164;9.704;2024-02-04T10:02:40;13.1;;;11.8;;
79592;SDS011;69074;45.164;9.704;2024-02-04T10:05:04;12.5;;;11.3;;
79592;SDS011;69074;45.164;9.704;2024-02-04T10:07:29;12.5;;;11.3;;
79592;SDS011;69074;45.164;9.704;2024-02-04T10:09:55;12.5;;;11.3;;
79592;SDS011;69074;45.164;9.704;2024-02-04T10:12:19;12.5;;;11.3;;
79592;SDS011;69074;45.164;9.704;2024-02-04T10:14:44;12.5;;;11.3;;
79592;SDS011;69074;45.164;9.704;2024-02-04T10:17:09;12.5;;;11.3;;
79592;SDS011;69074;45.164;9.704;2024-02-04T10:19:34;12.5;;;11.3;;
79592;SDS011;69074;45.164;9.704;2024-02-04T10:21:59;13.0;;;11.8;;
79592;SDS011;69074;45.164;9.704;2024-02-04T10:24:24;13.0;;;11.8;;
79592;SDS011;69074;45.164;9.704;2024-02-04T10:26:49;13.0;;;11.8;;
79592;SDS011;69074;45.164;9.704;2024-02-04T10:29:14;13.0;;;11.8;;
79592;SDS011;69074;45.164;9.704;2024-02-04T10:31:39;13.0;;;11.8;;
79592;SDS011;69074;45.164;9.704;2024-02-04T10:34:05;13.0;;;11.8;;
79592;SDS011;69074;45.164;9.704;2024-02-04T10:36:30;13.5;;;12.2;;
79592;SDS011;69074;45.164;9.704;2024-02-04T10:38:54;13.5;;;12.2;;
79592;SDS011;69074;45.164;9.704;2024-02-04T10:41:19;13.5;;;12.2;;
79592;SDS011;69074;45.164;9.704;2024-02-04T10:43:44;13.5;;;12.2;;
79592;SDS011;69074;45.164;9.704;2024-02-04T10:46:10;13.5;;;12.2;;
79592;SDS011;69074;45.164;9.704;2024-02-04T10:48:36;13.5;;;12.2;;
79592;SDS011;69074;45.164;9.704;2024-02-04T10:50:59;13.1;;;11.8;;
79592;SDS011;69074;45.164;9.704;2024-02-04T10:53:24;13.1;;;11.8;;
79592;SDS011;69074;45.164;9.704;2024-02-04T10:55:49;13.1;;;11.8;;
79592;SDS011;69074;45.164;9.704;2024-02-04T10:58:14;13.1;;;11.8;;
79592;SDS011;69074;45.164;9.704;2024-02-04T11:00:39;13.1;;;11.8;;
79592;SDS011;69074;45.164;9.704;2024-02-04T11:03:04;13.1;;;11.8;;
79592;SDS011;69074;45.164;9.704;2024-02-04T11:05:29;15.4;;;12.4;;
79592;SDS011;69074;45.164;9.704;2024-02-04T11:07:54;15.4;;;12.4;;
79592;SDS011;69074;45.164;9.704;2024-02-04T11:10:19;15.4;;;12.4;;
79592;SDS011;69074;45.164;9.704;2024-02-04T11:12:44;15.4;;;12.4;;
79592;SDS011;69074;45.164;9.704;2024-02-04T11:15:10;15.4;;;12.4;;
79592;SDS011;69074;45.164;9.704;2024-02-04T11:17:49;15.4;;;12.4;;
79592;SDS011;69074;45.164;9.704;2024-02-04T11:20:03;20.8;;;13.9;;
79592;SDS011;69074;45.164;9.704;2024-02-04T11:22:29;20.8;;;13.9;;
79592;SDS011;69074;45.164;9.704;2024-02-04T11:24:54;20.8;;;13.9;;
79592;SDS011;69074;45.164;9.704;2024-02-04T11:27:14;20.8;;;13.9;;
79592;SDS011;69074;45.164;9.704;2024-02-04T11:29:39;20.8;;;13.9;;
79592;SDS011;69074;45.164;9.704;2024-02-04T11:32:05;20.8;;;13.9;;
79592;SDS011;69074;45.164;9.704;2024-02-04T11:34:29;20.8;;;13.9;;
79592;SDS011;69074;45.164;9.704;2024-02-04T11:36:54;27.8;;;15.1;;
79592;SDS011;69074;45.164;9.704;2024-02-04T11:39:19;27.8;;;15.1;;
79592;SDS011;69074;45.164;9.704;2024-02-04T11:41:44;27.8;;;15.1;;
79592;SDS011;69074;45.164;9.704;2024-02-04T11:44:09;27.8;;;15.1;;
79592;SDS011;69074;45.164;9.704;2024-02-04T11:46:34;27.8;;;15.1;;
79592;SDS011;69074;45.164;9.704;2024-02-04T11:48:59;27.8;;;15.1;;
79592;SDS011;69074;45.164;9.704;2024-02-04T11:51:24;25.9;;;16.6;;
79592;SDS011;69074;45.164;9.704;2024-02-04T11:53:49;25.9;;;16.6;;
79592;SDS011;69074;45.164;9.704;2024-02-04T11:56:14;25.9;;;16.6;;
79592;SDS011;69074;45.164;9.704;2024-02-04T11:58:39;25.9;;;16.6;;
79592;SDS011;69074;45.164;9.704;2024-02-04T12:01:04;25.9;;;16.6;;
79592;SDS011;69074;45.164;9.704;2024-02-04T12:03:30;25.9;;;16.6;;
79592;SDS011;69074;45.164;9.704;2024-02-04T12:05:54;24.8;;;15.8;;
79592;SDS011;69074;45.164;9.704;2024-02-04T12:08:19;24.8;;;15.8;;
79592;SDS011;69074;45.164;9.704;2024-02-04T12:10:44;24.8;;;15.8;;
79592;SDS011;69074;45.164;9.704;2024-02-04T12:13:09;24.8;;;15.8;;
79592;SDS011;69074;45.164;9.704;2024-02-04T12:15:34;24.8;;;15.8;;
79592;SDS011;69074;45.164;9.704;2024-02-04T12:18:05;24.8;;;15.8;;
79592;SDS011;69074;45.164;9.704;2024-02-04T12:20:24;23.4;;;16.0;;
79592;SDS011;69074;45.164;9.704;2024-02-04T12:22:49;23.4;;;16.0;;
79592;SDS011;69074;45.164;9.704;2024-02-04T12:25:14;23.4;;;16.0;;
79592;SDS011;69074;45.164;9.704;2024-02-04T12:27:39;23.4;;;16.0;;
79592;SDS011;69074;45.164;9.704;2024-02-04T12:30:05;23.4;;;16.0;;
79592;SDS011;69074;45.164;9.704;2024-02-04T12:32:29;23.4;;;16.0;;
79592;SDS011;69074;45.164;9.704;2024-02-04T12:34:54;22.4;;;15.3;;
79592;SDS011;69074;45.164;9.704;2024-02-04T12:37:19;22.4;;;15.3;;
79592;SDS011;69074;45.164;9.704;2024-02-04T12:39:44;22.4;;;15.3;;
79592;SDS011;69074;45.164;9.704;2024-02-04T12:42:09;22.4;;;15.3;;
79592;SDS011;69074;45.164;9.704;2024-02-04T12:44:34;22.4;;;15.3;;
79592;SDS011;69074;45.164;9.704;2024-02-04T12:46:59;22.4;;;15.3;;
79592;SDS011;69074;45.164;9.704;2024-02-04T12:49:24;22.4;;;15.3;;
79592;SDS011;69074;45.164;9.704;2024-02-04T12:51:49;20.1;;;15.2;;
79592;SDS011;69074;45.164;9.704;2024-02-04T12:54:14;20.1;;;15.2;;
79592;SDS011;69074;45.164;9.704;2024-02-04T12:56:40;20.1;;;15.2;;
79592;SDS011;69074;45.164;9.704;2024-02-04T12:59:04;20.1;;;15.2;;
79592;SDS011;69074;45.164;9.704;2024-02-04T13:01:29;20.1;;;15.2;;
79592;SDS011;69074;45.164;9.704;2024-02-04T13:03:55;20.1;;;15.2;;
79592;SDS011;69074;45.164;9.704;2024-02-04T13:06:19;21.5;;;15.4;;
79592;SDS011;69074;45.164;9.704;2024-02-04T13:08:44;21.5;;;15.4;;
79592;SDS011;69074;45.164;9.704;2024-02-04T13:11:09;21.5;;;15.4;;
79592;SDS011;69074;45.164;9.704;2024-02-04T13:13:34;21.5;;;15.4;;
79592;SDS011;69074;45.164;9.704;2024-02-04T13:15:59;21.5;;;15.4;;
79592;SDS011;69074;45.164;9.704;2024-02-04T13:18:24;21.5;;;15.4;;
79592;SDS011;69074;45.164;9.704;2024-02-04T13:20:49;19.3;;;14.9;;
79592;SDS011;69074;45.164;9.704;2024-02-04T13:23:14;19.3;;;14.9;;
79592;SDS011;69074;45.164;9.704;2024-02-04T13:25:39;19.3;;;14.9;;
79592;SDS011;69074;45.164;9.704;2024-02-04T13:28:04;19.3;;;14.9;;
79592;SDS011;69074;45.164;9.704;2024-02-04T13:30:29;19.3;;;14.9;;
79592;SDS011;69074;45.164;9.704;2024-02-04T13:32:54;19.3;;;14.9;;
79592;SDS011;69074;45.164;9.704;2024-02-04T13:35:19;25.2;;;18.4;;
79592;SDS011;69074;45.164;9.704;2024-02-04T13:37:45;25.2;;;18.4;;
79592;SDS011;69074;45.164;9.704;2024-02-04T13:40:09;25.2;;;18.4;;
79592;SDS011;69074;45.164;9.704;2024-02-04T13:42:35;25.2;;;18.4;;
79592;SDS011;69074;45.164;9.704;2024-02-04T13:44:59;25.2;;;18.4;;
79592;SDS011;69074;45.164;9.704;2024-02-04T13:47:24;25.2;;;18.4;;
79592;SDS011;69074;45.164;9.704;2024-02-04T13:49:49;25.2;;;18.4;;
79592;SDS011;69074;45.164;9.704;2024-02-04T13:52:14;27.8;;;21.2;;
79592;SDS011;69074;45.164;9.704;2024-02-04T13:54:39;27.8;;;21.2;;
79592;SDS011;69074;45.164;9.704;2024-02-04T13:57:04;27.8;;;21.2;;
79592;SDS011;69074;45.164;9.704;2024-02-04T13:59:29;27.8;;;21.2;;
79592;SDS011;69074;45.164;9.704;2024-02-04T14:01:54;27.8;;;21.2;;
79592;SDS011;69074;45.164;9.704;2024-02-04T14:04:19;27.8;;;21.2;;
79592;SDS011;69074;45.164;9.704;2024-02-04T14:06:44;32.0;;;22.8;;
79592;SDS011;69074;45.164;9.704;2024-02-04T14:09:09;32.0;;;22.8;;
79592;SDS011;69074;45.164;9.704;2024-02-04T14:11:34;32.0;;;22.8;;
79592;SDS011;69074;45.164;9.704;2024-02-04T14:13:59;32.0;;;22.8;;
79592;SDS011;69074;45.164;9.704;2024-02-04T14:16:24;32.0;;;22.8;;
79592;SDS011;69074;45.164;9.704;2024-02-04T14:18:49;32.0;;;22.8;;
79592;SDS011;69074;45.164;9.704;2024-02-04T14:21:14;33.4;;;26.0;;
79592;SDS011;69074;45.164;9.704;2024-02-04T14:23:39;33.4;;;26.0;;
79592;SDS011;69074;45.164;9.704;2024-02-04T14:26:04;33.4;;;26.0;;
79592;SDS011;69074;45.164;9.704;2024-02-04T14:28:29;33.4;;;26.0;;
79592;SDS011;69074;45.164;9.704;2024-02-04T14:30:54;33.4;;;26.0;;
79592;SDS011;69074;45.164;9.704;2024-02-04T14:33:19;33.4;;;26.0;;